Time;durP1;ratioP1;P1;durP2;ratioP2;P2;SDS_P1;SDS_P2;PMS_P1;PMS_P2;Temp;Humidity;BMP_temperature;BMP_pressure;BME280_temperature;BME280_humidity;BME280_pressure;Samples;Min_cycle;Max_cycle;Signal;HPM_P1;HPM_P2
2023/03/19 00:00:27;;;;;;;0.80;0.70;;;8.70;99.90;;;;;;5078230;28;20048;-77
2023/03/19 00:02:54;;;;;;;1.40;0.90;;;8.70;99.90;;;;;;5077549;28;20064;-77
2023/03/19 00:05:21;;;;;;;1.42;0.82;;;8.70;99.90;;;;;;5076979;28;20048;-77
2023/03/19 00:07:48;;;;;;;0.98;0.70;;;8.70;99.90;;;;;;5079100;28;20075;-77
2023/03/19 00:10:15;;;;;;;1.45;0.82;;;8.70;99.90;;;;;;5077908;28;20147;-77
2023/03/19 00:12:42;;;;;;;0.88;0.55;;;8.70;99.90;;;;;;5075885;28;20097;-77
2023/03/19 00:15:12;;;;;;;1.50;1.08;;;8.70;99.90;;;;;;5061055;28;20134;-78
2023/03/19 00:17:41;;;;;;;1.50;1.10;;;8.70;99.90;;;;;;5062223;28;20048;-78
2023/03/19 00:20:10;;;;;;;1.77;0.73;;;8.60;99.90;;;;;;5027612;28;20112;-78
2023/03/19 00:22:37;;;;;;;0.95;0.70;;;8.60;99.90;;;;;;5042830;28;20078;-77
2023/03/19 00:25:04;;;;;;;0.77;0.60;;;8.60;99.90;;;;;;5040720;28;20044;-77
2023/03/19 00:27:31;;;;;;;1.15;0.70;;;8.60;99.90;;;;;;5043062;28;20511;-77
2023/03/19 00:29:58;;;;;;;0.82;0.60;;;8.60;99.90;;;;;;5079111;28;20048;-78
2023/03/19 00:32:25;;;;;;;1.27;0.70;;;8.60;99.90;;;;;;5078251;28;20547;-77
2023/03/19 00:34:52;;;;;;;0.65;0.60;;;8.60;99.90;;;;;;5077992;28;20059;-78
2023/03/19 00:37:18;;;;;;;0.80;0.50;;;8.60;99.90;;;;;;5064163;28;20133;-78
2023/03/19 00:39:46;;;;;;;1.23;0.77;;;8.70;99.90;;;;;;5082505;28;20530;-77
2023/03/19 00:42:13;;;;;;;1.20;0.60;;;8.70;99.90;;;;;;5064716;28;20044;-78
2023/03/19 00:44:40;;;;;;;1.00;0.63;;;8.80;99.90;;;;;;5082734;28;20415;-78
2023/03/19 00:47:07;;;;;;;0.63;0.52;;;8.90;99.90;;;;;;5082703;28;20442;-78
2023/03/19 00:49:34;;;;;;;1.40;0.90;;;8.90;99.90;;;;;;5079115;28;20043;-77
2023/03/19 00:52:01;;;;;;;1.38;1.00;;;9.00;99.90;;;;;;5081964;28;20156;-78
2023/03/19 00:54:27;;;;;;;0.88;0.60;;;9.00;99.90;;;;;;5063486;28;20514;-78
2023/03/19 00:56:55;;;;;;;0.95;0.75;;;9.10;99.90;;;;;;5064372;28;20040;-78
2023/03/19 00:59:21;;;;;;;0.82;0.70;;;9.20;99.90;;;;;;5048750;28;20176;-77
2023/03/19 01:01:48;;;;;;;1.58;1.00;;;9.20;99.90;;;;;;5081309;28;20315;-78
2023/03/19 01:04:15;;;;;;;1.63;0.88;;;9.30;99.90;;;;;;5062612;28;20052;-77
2023/03/19 01:06:42;;;;;;;1.30;0.80;;;9.30;99.90;;;;;;5081913;28;20126;-77
2023/03/19 01:09:09;;;;;;;1.67;0.90;;;9.30;99.90;;;;;;5047708;28;20043;-78
2023/03/19 01:11:36;;;;;;;1.73;1.05;;;9.40;99.90;;;;;;5063531;28;20085;-77
2023/03/19 01:14:03;;;;;;;1.45;0.95;;;9.40;99.90;;;;;;5082623;28;20051;-78
2023/03/19 01:16:29;;;;;;;2.72;1.27;;;9.40;99.90;;;;;;5048112;28;20054;-78
2023/03/19 01:18:57;;;;;;;1.80;1.10;;;9.40;99.90;;;;;;5031416;28;20373;-78
2023/03/19 01:21:24;;;;;;;1.70;1.08;;;9.50;99.90;;;;;;5080227;28;20056;-78
2023/03/19 01:23:51;;;;;;;1.25;0.82;;;9.50;99.90;;;;;;5047549;28;20075;-78
2023/03/19 01:26:18;;;;;;;1.30;0.90;;;9.50;99.90;;;;;;5030607;28;20080;-78
2023/03/19 01:28:45;;;;;;;1.45;0.90;;;9.50;99.90;;;;;;5064005;28;20044;-78
2023/03/19 01:31:12;;;;;;;2.05;1.25;;;9.50;99.90;;;;;;5081991;28;20140;-78
2023/03/19 01:33:39;;;;;;;2.53;1.15;;;9.60;99.90;;;;;;5076836;28;20076;-78
2023/03/19 01:36:07;;;;;;;2.13;1.42;;;9.60;99.90;;;;;;5063765;28;20086;-77
2023/03/19 01:38:34;;;;;;;2.42;1.38;;;9.60;99.90;;;;;;5046652;28;20048;-77
2023/03/19 01:41:01;;;;;;;1.85;1.25;;;9.60;99.90;;;;;;5047033;28;20123;-77
2023/03/19 01:43:28;;;;;;;3.08;1.50;;;9.60;99.90;;;;;;5047106;28;20501;-77
2023/03/19 01:46:06;;;;;;;1.85;1.50;;;9.60;99.90;;;;;;5063732;28;20052;-77
2023/03/19 01:48:38;;;;;;;2.20;1.67;;;9.50;99.90;;;;;;5063888;28;20205;-77
2023/03/19 01:51:07;;;;;;;2.80;1.40;;;9.40;99.90;;;;;;5081841;28;20048;-77
2023/03/19 01:53:34;;;;;;;4.22;1.52;;;9.40;99.90;;;;;;5046030;28;20445;-77
2023/03/19 01:56:23;;;;;;;1.50;1.15;;;9.40;99.90;;;;;;5046234;28;20047;-77
2023/03/19 01:58:51;;;;;;;3.42;1.77;;;9.30;99.90;;;;;;5048637;28;20052;-77
2023/03/19 02:01:19;;;;;;;4.00;2.10;;;9.30;99.90;;;;;;5047685;28;20079;-77
2023/03/19 02:03:46;;;;;;;4.40;2.55;;;9.10;99.90;;;;;;5048521;28;20136;-77
2023/03/19 02:06:13;;;;;;;2.33;1.52;;;9.00;99.90;;;;;;5063983;28;20447;-77
2023/03/19 02:08:40;;;;;;;2.20;1.58;;;8.90;99.90;;;;;;5047384;28;20538;-77
2023/03/19 02:11:06;;;;;;;2.83;1.42;;;8.80;99.90;;;;;;5047972;28;20066;-76
2023/03/19 02:13:34;;;;;;;4.40;1.67;;;8.70;99.90;;;;;;5064514;28;20044;-76
2023/03/19 02:16:00;;;;;;;2.05;1.20;;;8.50;99.90;;;;;;5064683;28;20058;-76
2023/03/19 02:18:27;;;;;;;3.38;1.20;;;8.40;99.90;;;;;;5080492;28;20044;-76
2023/03/19 02:20:57;;;;;;;2.53;1.10;;;8.20;99.90;;;;;;5077339;28;20499;-76
2023/03/19 02:23:45;;;;;;;3.17;1.25;;;8.20;99.90;;;;;;5079441;28;20177;-77
2023/03/19 02:26:13;;;;;;;1.90;1.00;;;8.10;99.90;;;;;;5097183;27;20123;-76
2023/03/19 02:28:42;;;;;;;0.90;0.80;;;8.00;99.90;;;;;;5062818;28;20055;-76
2023/03/19 02:31:09;;;;;;;1.52;0.95;;;7.90;99.90;;;;;;5048177;28;20080;-76
2023/03/19 02:33:36;;;;;;;1.48;0.90;;;8.00;99.90;;;;;;5062704;28;20036;-76
2023/03/19 02:36:05;;;;;;;1.42;0.65;;;7.90;99.90;;;;;;5074953;28;20044;-76
2023/03/19 02:38:32;;;;;;;2.75;0.75;;;7.80;99.90;;;;;;5079952;28;20055;-76
2023/03/19 02:41:04;;;;;;;1.23;0.82;;;7.80;99.90;;;;;;5066445;28;20128;-76
2023/03/19 02:43:33;;;;;;;2.50;0.88;;;7.80;99.90;;;;;;5073757;28;20553;-77
2023/03/19 02:46:00;;;;;;;1.60;0.70;;;7.80;99.90;;;;;;5054482;28;20064;-76
2023/03/19 02:48:27;;;;;;;1.20;0.82;;;7.70;99.90;;;;;;5066199;28;20074;-77
2023/03/19 02:50:54;;;;;;;1.67;0.90;;;7.70;99.90;;;;;;5064053;28;20055;-76
2023/03/19 02:53:21;;;;;;;1.58;0.55;;;7.70;99.90;;;;;;5057882;28;20538;-76
2023/03/19 02:55:48;;;;;;;3.15;0.80;;;7.70;99.90;;;;;;5066305;28;20047;-76
2023/03/19 02:58:15;;;;;;;2.15;0.88;;;7.60;99.90;;;;;;5080699;28;20951;-76
2023/03/19 03:00:42;;;;;;;1.05;0.70;;;7.60;99.90;;;;;;5046701;28;20123;-76
2023/03/19 03:03:08;;;;;;;0.77;0.55;;;7.60;99.90;;;;;;5060248;28;20059;-76
2023/03/19 03:05:35;;;;;;;1.40;0.75;;;7.50;99.90;;;;;;5067108;28;20052;-76
2023/03/19 03:08:03;;;;;;;1.15;0.70;;;7.50;99.90;;;;;;5084245;28;20931;-76
2023/03/19 03:10:30;;;;;;;1.85;0.50;;;7.60;99.90;;;;;;5079981;28;20127;-76
2023/03/19 03:12:58;;;;;;;1.33;0.50;;;7.60;99.90;;;;;;5064586;28;20052;-76
2023/03/19 03:15:25;;;;;;;0.73;0.40;;;7.60;99.90;;;;;;5079750;28;20044;-77
2023/03/19 03:17:52;;;;;;;1.67;0.77;;;7.60;99.90;;;;;;5083089;28;20072;-77
2023/03/19 03:20:19;;;;;;;0.65;0.60;;;7.60;99.90;;;;;;5082557;28;20593;-76
2023/03/19 03:22:47;;;;;;;0.95;0.40;;;7.60;99.90;;;;;;5079793;28;20052;-78
2023/03/19 03:25:13;;;;;;;0.90;0.50;;;7.50;99.90;;;;;;5083321;28;20484;-76
2023/03/19 03:27:40;;;;;;;0.88;0.38;;;7.50;99.90;;;;;;5054710;28;20048;-76
2023/03/19 03:30:07;;;;;;;0.28;0.28;;;7.50;99.90;;;;;;5083132;28;20054;-76
2023/03/19 03:32:35;;;;;;;3.03;1.02;;;7.50;99.90;;;;;;5066060;28;20178;-78
2023/03/19 03:35:04;;;;;;;1.13;0.60;;;7.50;99.90;;;;;;5064222;28;20052;-78
2023/03/19 03:37:30;;;;;;;1.02;0.60;;;7.50;99.90;;;;;;5062515;28;20044;-77
2023/03/19 03:39:57;;;;;;;0.47;0.47;;;7.50;99.90;;;;;;5057433;28;20155;-77
2023/03/19 03:42:24;;;;;;;1.20;0.68;;;7.60;99.90;;;;;;5083088;28;20123;-76
2023/03/19 03:44:50;;;;;;;1.58;0.60;;;7.50;99.90;;;;;;5066001;28;20036;-75
2023/03/19 03:47:17;;;;;;;2.53;0.85;;;7.50;99.90;;;;;;5084904;28;20075;-76
2023/03/19 03:49:44;;;;;;;0.55;0.40;;;7.50;99.90;;;;;;5052451;28;20079;-77
2023/03/19 03:52:11;;;;;;;1.02;0.50;;;7.50;99.90;;;;;;5098015;28;20135;-76
2023/03/19 03:54:38;;;;;;;0.70;0.50;;;7.50;99.90;;;;;;5064619;28;20040;-76
2023/03/19 03:57:05;;;;;;;1.13;0.50;;;7.50;99.90;;;;;;5067458;28;20050;-76
2023/03/19 03:59:32;;;;;;;0.93;0.68;;;7.50;99.90;;;;;;5076807;28;20054;-76
2023/03/19 04:01:58;;;;;;;1.17;0.70;;;7.50;99.90;;;;;;5081876;28;20264;-76
2023/03/19 04:04:25;;;;;;;1.50;0.60;;;7.50;99.90;;;;;;5083831;28;20039;-76
2023/03/19 04:06:52;;;;;;;1.30;0.70;;;7.50;99.90;;;;;;5054913;28;20439;-77
2023/03/19 04:09:19;;;;;;;1.50;0.60;;;7.50;99.90;;;;;;5081495;28;20073;-76
2023/03/19 04:11:46;;;;;;;0.70;0.70;;;7.50;99.90;;;;;;5082277;28;20074;-76
2023/03/19 04:14:16;;;;;;;2.22;0.77;;;7.40;99.90;;;;;;5050799;28;20132;-76
2023/03/19 04:16:43;;;;;;;2.58;0.80;;;7.50;99.90;;;;;;5083498;28;20063;-75
2023/03/19 04:19:10;;;;;;;1.13;0.47;;;7.40;99.90;;;;;;5033028;28;20627;-76
2023/03/19 04:21:37;;;;;;;1.13;0.60;;;7.40;99.90;;;;;;5083056;28;20055;-76
2023/03/19 04:24:04;;;;;;;1.15;0.73;;;7.40;99.90;;;;;;5083636;28;20426;-76
2023/03/19 04:26:30;;;;;;;1.85;0.63;;;7.40;99.90;;;;;;5048898;28;20043;-76
2023/03/19 04:28:57;;;;;;;1.10;0.68;;;7.40;99.90;;;;;;5030045;28;20075;-76
2023/03/19 04:31:24;;;;;;;2.60;0.70;;;7.40;99.90;;;;;;5063544;28;20152;-76
2023/03/19 04:33:51;;;;;;;1.02;0.52;;;7.40;99.90;;;;;;5070701;28;20052;-76
2023/03/19 04:36:18;;;;;;;1.80;0.88;;;7.40;99.90;;;;;;5056905;28;20127;-76
2023/03/19 04:38:45;;;;;;;1.38;0.70;;;7.50;99.90;;;;;;5065216;28;20450;-76
2023/03/19 04:41:12;;;;;;;2.15;0.68;;;7.50;99.90;;;;;;5065509;28;20059;-77
2023/03/19 04:43:39;;;;;;;0.75;0.52;;;7.50;99.90;;;;;;5082450;28;20142;-77
2023/03/19 04:46:07;;;;;;;1.73;0.70;;;7.50;99.90;;;;;;5072192;28;20127;-76
2023/03/19 04:48:38;;;;;;;1.40;0.70;;;7.50;99.90;;;;;;5082942;28;20071;-76
2023/03/19 04:51:07;;;;;;;1.23;0.57;;;7.50;99.90;;;;;;5080817;28;20052;-76
2023/03/19 04:53:35;;;;;;;1.10;0.80;;;7.60;99.90;;;;;;5075639;28;20489;-76
2023/03/19 04:56:02;;;;;;;0.70;0.50;;;7.60;99.90;;;;;;5057166;28;20617;-76
2023/03/19 04:58:29;;;;;;;1.77;0.60;;;7.60;99.90;;;;;;5080866;28;20126;-77
2023/03/19 05:00:56;;;;;;;1.23;0.60;;;7.60;99.90;;;;;;5071919;28;20044;-78
2023/03/19 05:03:23;;;;;;;2.03;0.80;;;7.60;99.90;;;;;;5075421;28;20051;-77
2023/03/19 05:05:49;;;;;;;0.73;0.40;;;7.60;99.90;;;;;;5082247;28;20048;-76
2023/03/19 05:08:16;;;;;;;0.77;0.50;;;7.60;99.90;;;;;;5058386;28;20075;-78
2023/03/19 05:10:43;;;;;;;1.08;0.55;;;7.60;99.90;;;;;;5081274;28;20044;-76
2023/03/19 05:13:10;;;;;;;3.17;1.02;;;7.60;99.90;;;;;;5059518;28;20048;-78
2023/03/19 05:15:37;;;;;;;2.45;1.10;;;7.60;99.90;;;;;;5065389;28;20528;-78
2023/03/19 05:18:04;;;;;;;4.00;1.88;;;7.50;99.90;;;;;;5083605;28;20063;-78
2023/03/19 05:20:31;;;;;;;3.10;1.10;;;7.40;99.90;;;;;;5066524;28;20058;-79
2023/03/19 05:22:58;;;;;;;3.65;1.58;;;7.30;99.90;;;;;;5087048;28;20048;-78
2023/03/19 05:25:24;;;;;;;3.20;0.90;;;7.30;99.90;;;;;;5068321;28;20047;-78
2023/03/19 05:27:51;;;;;;;4.00;1.00;;;7.30;99.90;;;;;;5086511;28;20097;-76
2023/03/19 05:30:18;;;;;;;4.05;0.95;;;7.30;99.90;;;;;;5078381;28;20044;-77
2023/03/19 05:32:45;;;;;;;3.95;1.23;;;7.20;99.90;;;;;;5086769;28;20048;-77
2023/03/19 05:35:13;;;;;;;5.22;1.67;;;7.10;99.90;;;;;;5056269;28;20048;-77
2023/03/19 05:37:40;;;;;;;3.10;1.05;;;7.10;99.90;;;;;;5053869;28;20557;-77
2023/03/19 05:40:07;;;;;;;4.35;1.30;;;7.10;99.90;;;;;;5061876;28;20044;-78
2023/03/19 05:42:34;;;;;;;3.03;0.95;;;7.00;99.90;;;;;;5068936;28;20059;-77
2023/03/19 05:45:01;;;;;;;3.45;1.20;;;6.90;99.90;;;;;;5046043;28;20052;-77
2023/03/19 05:47:27;;;;;;;2.72;1.00;;;6.90;99.90;;;;;;5079874;28;20046;-77
2023/03/19 05:49:55;;;;;;;1.70;0.90;;;6.80;99.90;;;;;;5075729;28;20056;-78
2023/03/19 05:52:22;;;;;;;1.55;0.88;;;6.70;99.90;;;;;;5078844;28;20052;-78
2023/03/19 05:54:49;;;;;;;3.30;1.17;;;6.70;99.90;;;;;;5062005;28;20163;-77
2023/03/19 05:57:16;;;;;;;3.30;1.02;;;6.70;99.90;;;;;;5051125;28;21284;-76
2023/03/19 05:59:43;;;;;;;2.30;0.82;;;6.60;99.90;;;;;;5073121;28;20479;-77
2023/03/19 06:02:10;;;;;;;2.75;0.70;;;6.60;99.90;;;;;;5077161;28;20056;-77
2023/03/19 06:04:36;;;;;;;2.03;0.90;;;6.50;99.90;;;;;;5075938;28;20782;-76
2023/03/19 06:07:03;;;;;;;1.75;0.95;;;6.50;99.90;;;;;;5069798;28;20972;-76
2023/03/19 06:09:30;;;;;;;2.45;0.68;;;6.50;99.90;;;;;;5049373;28;20106;-77
2023/03/19 06:11:57;;;;;;;1.63;0.75;;;6.50;99.90;;;;;;5076187;28;20040;-77
2023/03/19 06:14:24;;;;;;;1.30;0.70;;;6.60;99.90;;;;;;5077711;28;20062;-77
2023/03/19 06:16:51;;;;;;;1.30;0.55;;;6.60;99.90;;;;;;5079240;28;20047;-78
2023/03/19 06:19:18;;;;;;;2.65;0.73;;;6.60;99.90;;;;;;5060574;28;20121;-77
2023/03/19 06:21:44;;;;;;;2.28;0.80;;;6.60;99.90;;;;;;5058809;28;20074;-78
2023/03/19 06:24:11;;;;;;;1.20;0.63;;;6.60;99.90;;;;;;5078621;28;20143;-77
2023/03/19 06:26:38;;;;;;;1.48;0.65;;;6.70;99.90;;;;;;5079303;28;20514;-78
2023/03/19 06:29:05;;;;;;;0.77;0.43;;;6.70;99.90;;;;;;5078471;28;20392;-77
2023/03/19 06:31:32;;;;;;;1.75;0.70;;;6.70;99.90;;;;;;5077283;28;20719;-77
2023/03/19 06:33:58;;;;;;;1.33;0.80;;;6.70;99.90;;;;;;5076795;28;20857;-77
2023/03/19 06:36:25;;;;;;;1.50;0.65;;;6.80;99.90;;;;;;5048059;28;20105;-78
2023/03/19 06:38:52;;;;;;;2.10;1.13;;;6.80;99.90;;;;;;5076058;28;20318;-77
2023/03/19 06:41:20;;;;;;;1.42;0.60;;;6.90;99.90;;;;;;5076651;28;20135;-77
2023/03/19 06:43:46;;;;;;;1.90;0.70;;;6.90;99.90;;;;;;5075018;28;20491;-78
2023/03/19 06:46:13;;;;;;;3.03;0.85;;;6.90;99.90;;;;;;5077236;28;20063;-77
2023/03/19 06:48:40;;;;;;;1.73;0.65;;;6.90;99.90;;;;;;5075548;28;20048;-77
2023/03/19 06:51:08;;;;;;;3.78;0.85;;;6.90;99.90;;;;;;5074479;28;20135;-76
2023/03/19 06:53:35;;;;;;;4.25;0.93;;;6.90;99.90;;;;;;5080494;28;20402;-77
2023/03/19 06:56:01;;;;;;;1.95;0.80;;;6.90;99.90;;;;;;5075559;28;20289;-77
2023/03/19 06:58:28;;;;;;;3.25;0.90;;;6.90;99.90;;;;;;5076546;28;20052;-77
2023/03/19 07:00:55;;;;;;;1.63;0.80;;;6.90;99.90;;;;;;5049435;28;20075;-77
2023/03/19 07:03:22;;;;;;;1.52;0.50;;;6.90;99.90;;;;;;5074533;28;20047;-78
2023/03/19 07:05:50;;;;;;;1.30;0.82;;;7.00;99.90;;;;;;5072332;28;20056;-77
2023/03/19 07:08:17;;;;;;;2.20;1.05;;;7.00;99.90;;;;;;5074981;28;20059;-77
2023/03/19 07:10:44;;;;;;;2.13;0.77;;;7.10;99.90;;;;;;5068680;28;20086;-78
2023/03/19 07:13:10;;;;;;;1.58;0.80;;;7.10;99.90;;;;;;5065873;28;20517;-77
2023/03/19 07:15:37;;;;;;;2.17;1.42;;;7.10;99.90;;;;;;5058316;28;20048;-77
2023/03/19 07:18:04;;;;;;;2.35;0.80;;;7.10;99.90;;;;;;5040594;28;20044;-77
2023/03/19 07:20:31;;;;;;;2.15;0.70;;;7.20;99.90;;;;;;5059334;28;20454;-77
2023/03/19 07:22:58;;;;;;;3.10;0.80;;;7.20;99.90;;;;;;5064453;28;20054;-77
2023/03/19 07:25:25;;;;;;;3.00;1.00;;;7.30;99.90;;;;;;5076252;28;20070;-77
2023/03/19 07:27:52;;;;;;;1.65;0.90;;;7.30;99.90;;;;;;5071448;28;20048;-77
2023/03/19 07:30:22;;;;;;;2.33;0.80;;;7.40;99.90;;;;;;5076183;28;20114;-77
2023/03/19 07:32:48;;;;;;;3.38;1.08;;;7.40;99.90;;;;;;5069749;28;20148;-77
2023/03/19 07:35:15;;;;;;;0.93;0.50;;;7.40;99.90;;;;;;5053563;28;20044;-77
2023/03/19 07:37:42;;;;;;;2.85;0.90;;;7.50;99.90;;;;;;5042308;28;20445;-78
2023/03/19 07:40:09;;;;;;;4.47;1.20;;;7.50;99.90;;;;;;5048295;28;20040;-78
2023/03/19 07:42:37;;;;;;;2.65;1.08;;;7.40;99.90;;;;;;5071763;28;20051;-78
2023/03/19 07:45:04;;;;;;;2.20;0.80;;;7.40;99.90;;;;;;5070987;28;20052;-77
2023/03/19 07:47:31;;;;;;;2.17;0.90;;;7.50;99.90;;;;;;5069709;28;20044;-78
2023/03/19 07:49:58;;;;;;;2.25;1.00;;;7.50;99.90;;;;;;5056080;28;20054;-78
2023/03/19 07:52:25;;;;;;;4.50;1.23;;;7.60;99.90;;;;;;5038053;28;20313;-77
2023/03/19 07:54:52;;;;;;;6.10;1.80;;;7.60;99.90;;;;;;5043998;28;20113;-78
2023/03/19 07:57:19;;;;;;;3.75;1.02;;;7.50;99.90;;;;;;5053567;28;20488;-78
2023/03/19 07:59:46;;;;;;;2.92;1.25;;;7.50;99.90;;;;;;5063929;28;20052;-78
2023/03/19 08:02:13;;;;;;;1.92;0.90;;;7.60;99.90;;;;;;5058906;28;20494;-77
2023/03/19 08:04:40;;;;;;;3.03;1.05;;;7.70;99.90;;;;;;5053648;28;20062;-79
2023/03/19 08:07:09;;;;;;;4.32;0.98;;;7.80;99.90;;;;;;5073834;28;20448;-79
2023/03/19 08:09:36;;;;;;;2.58;1.30;;;7.80;99.90;;;;;;5064007;28;20112;-79
2023/03/19 08:12:04;;;;;;;1.58;0.85;;;7.90;99.90;;;;;;5049866;28;20514;-78
2023/03/19 08:14:32;;;;;;;2.05;0.80;;;7.90;99.90;;;;;;5043578;28;20078;-79
2023/03/19 08:16:59;;;;;;;2.05;0.98;;;7.90;99.90;;;;;;5060039;28;20063;-88
2023/03/19 08:19:26;;;;;;;2.95;1.17;;;7.90;99.90;;;;;;5027949;28;20048;-79
2023/03/19 08:21:52;;;;;;;3.63;1.23;;;7.90;99.90;;;;;;5059020;28;20242;-78
2023/03/19 08:24:19;;;;;;;2.17;0.90;;;8.00;99.90;;;;;;5058976;28;20055;-78
2023/03/19 08:26:46;;;;;;;2.30;1.10;;;8.10;99.90;;;;;;5059375;28;20573;-79
2023/03/19 08:29:13;;;;;;;3.42;1.15;;;8.10;99.90;;;;;;5059082;28;20044;-79
2023/03/19 08:31:40;;;;;;;2.47;1.05;;;8.20;99.90;;;;;;5053481;28;20074;-79
2023/03/19 08:34:09;;;;;;;2.90;1.00;;;8.30;99.90;;;;;;5061103;28;20075;-79
2023/03/19 08:36:36;;;;;;;4.00;1.27;;;8.40;99.90;;;;;;5043120;28;20047;-79
2023/03/19 08:39:03;;;;;;;2.40;1.17;;;8.40;99.90;;;;;;5040363;28;20056;-78
2023/03/19 08:41:30;;;;;;;3.78;0.98;;;8.40;99.90;;;;;;5038791;28;20781;-76
2023/03/19 08:43:57;;;;;;;2.38;1.15;;;8.40;99.90;;;;;;5022607;28;20487;-78
2023/03/19 08:46:24;;;;;;;3.13;1.10;;;8.50;99.90;;;;;;5039053;28;20071;-79
2023/03/19 08:48:51;;;;;;;3.08;1.33;;;8.50;99.90;;;;;;5038147;28;20491;-79
2023/03/19 08:51:18;;;;;;;3.03;1.27;;;8.60;99.90;;;;;;5050626;28;20048;-79
2023/03/19 08:53:44;;;;;;;2.38;0.88;;;8.70;99.90;;;;;;5068135;28;20050;-79
2023/03/19 08:56:11;;;;;;;4.55;1.13;;;8.80;99.90;;;;;;5040528;28;20062;-80
2023/03/19 08:58:40;;;;;;;4.32;1.08;;;8.80;99.90;;;;;;5056667;28;20147;-80
2023/03/19 09:01:09;;;;;;;3.28;1.48;;;8.80;99.90;;;;;;5041803;28;20433;-79
2023/03/19 09:03:36;;;;;;;3.25;1.30;;;8.80;99.90;;;;;;5060840;28;20043;-79
2023/03/19 09:06:04;;;;;;;5.80;1.63;;;8.90;99.90;;;;;;5042202;28;20040;-80
2023/03/19 09:08:31;;;;;;;2.15;1.00;;;8.90;99.90;;;;;;5075338;28;20150;-79
2023/03/19 09:10:58;;;;;;;1.95;0.90;;;9.00;99.90;;;;;;5067843;28;20483;-79
2023/03/19 09:13:25;;;;;;;2.60;1.35;;;9.10;99.90;;;;;;5044246;28;20088;-80
2023/03/19 09:15:52;;;;;;;1.33;0.80;;;9.20;99.90;;;;;;5027497;28;20384;-80
2023/03/19 09:18:24;;;;;;;2.22;0.80;;;9.40;99.90;;;;;;5058611;28;20149;-80
2023/03/19 09:20:52;;;;;;;2.38;0.85;;;9.40;99.90;;;;;;5061519;28;20539;-80
2023/03/19 09:23:20;;;;;;;3.42;1.17;;;9.40;99.90;;;;;;5040780;28;20138;-80
2023/03/19 09:25:47;;;;;;;2.53;1.10;;;9.40;99.90;;;;;;5043117;28;20456;-80
2023/03/19 09:28:13;;;;;;;2.88;0.93;;;9.50;99.90;;;;;;5043265;28;20102;-79
2023/03/19 09:30:40;;;;;;;1.85;0.88;;;9.50;99.90;;;;;;5078466;28;20044;-80
2023/03/19 09:33:07;;;;;;;3.45;1.15;;;9.60;99.90;;;;;;5074203;28;20052;-79
2023/03/19 09:35:34;;;;;;;2.60;1.00;;;9.80;99.90;;;;;;5077509;28;20668;-80
2023/03/19 09:38:01;;;;;;;3.70;1.00;;;9.90;99.90;;;;;;5039637;28;20072;-79
2023/03/19 09:40:40;;;;;;;2.17;1.00;;;10.00;99.90;;;;;;5058959;28;20129;-79
2023/03/19 09:43:39;;;;;;;3.38;1.50;;;10.00;99.90;;;;;;5063726;28;20127;-79
2023/03/19 09:46:18;;;;;;;3.42;1.70;;;10.00;99.90;;;;;;5053758;28;20125;-80
2023/03/19 09:48:53;;;;;;;2.55;1.02;;;10.20;99.90;;;;;;5043911;28;20044;-79
2023/03/19 09:51:40;;;;;;;2.65;1.23;;;10.20;99.90;;;;;;5056283;28;20179;-79
2023/03/19 09:54:26;;;;;;;1.77;0.98;;;10.20;99.90;;;;;;5050115;28;20403;-79
2023/03/19 09:56:53;;;;;;;4.53;1.52;;;10.20;99.90;;;;;;5063830;28;20151;-79
2023/03/19 09:59:21;;;;;;;3.33;1.05;;;10.20;99.90;;;;;;5044722;28;20047;-80
2023/03/19 10:01:57;;;;;;;2.88;0.88;;;10.30;99.90;;;;;;5062274;28;20475;-80
2023/03/19 10:04:36;;;;;;;2.72;1.00;;;10.30;99.90;;;;;;5027922;28;20415;-80
2023/03/19 10:07:12;;;;;;;1.90;0.80;;;10.50;99.90;;;;;;5059742;28;20083;-79
2023/03/19 10:09:48;;;;;;;3.63;1.17;;;10.70;99.90;;;;;;5061360;28;20431;-79
2023/03/19 10:12:21;;;;;;;1.67;0.90;;;10.70;99.90;;;;;;5044396;28;20059;-80
2023/03/19 10:15:16;;;;;;;3.17;1.10;;;10.70;99.90;;;;;;5061400;28;20090;-79
2023/03/19 10:18:03;;;;;;;3.60;1.27;;;10.60;99.90;;;;;;5046345;28;20055;-79
2023/03/19 10:20:30;;;;;;;3.70;1.35;;;10.40;99.90;;;;;;5063015;28;20141;-79
2023/03/19 10:23:18;;;;;;;4.10;1.40;;;10.30;99.90;;;;;;5078684;28;20131;-79
2023/03/19 10:25:45;;;;;;;4.78;1.15;;;10.20;99.90;;;;;;5059585;28;20212;-79
2023/03/19 10:28:14;;;;;;;2.13;0.85;;;10.30;99.90;;;;;;5053439;28;20260;-79
2023/03/19 10:30:42;;;;;;;3.03;1.30;;;10.40;99.90;;;;;;5067521;28;20505;-79
2023/03/19 10:33:22;;;;;;;1.70;0.73;;;10.30;99.90;;;;;;5048314;28;20098;-78
2023/03/19 10:36:03;;;;;;;3.25;0.88;;;10.40;99.90;;;;;;5066852;28;20074;-79
2023/03/19 10:38:32;;;;;;;1.92;1.00;;;10.40;99.90;;;;;;5055915;28;20248;-79
2023/03/19 10:41:18;;;;;;;1.20;0.60;;;10.50;99.90;;;;;;5062193;28;20044;-79
2023/03/19 10:43:54;;;;;;;2.38;1.13;;;10.60;99.90;;;;;;5079566;28;20087;-79
2023/03/19 10:46:21;;;;;;;2.65;0.90;;;10.70;99.90;;;;;;5062364;28;20048;-79
2023/03/19 10:48:48;;;;;;;1.50;0.60;;;10.70;99.90;;;;;;5059350;28;20052;-79
2023/03/19 10:51:23;;;;;;;0.85;0.60;;;10.70;99.90;;;;;;5067477;28;20249;-78
2023/03/19 10:53:52;;;;;;;1.45;0.80;;;10.80;99.90;;;;;;5049278;28;20130;-79
2023/03/19 10:56:21;;;;;;;1.60;0.70;;;10.90;99.90;;;;;;5039962;28;20152;-80
2023/03/19 10:59:23;;;;;;;1.13;0.70;;;11.10;99.90;;;;;;5044883;28;20117;-80
2023/03/19 11:01:58;;;;;;;1.23;0.60;;;11.30;99.90;;;;;;5043017;28;20046;-79
2023/03/19 11:04:26;;;;;;;1.50;0.60;;;11.40;99.90;;;;;;5042077;28;20758;-79
2023/03/19 11:06:55;;;;;;;1.38;0.70;;;11.30;99.90;;;;;;5059388;28;20473;-79
2023/03/19 11:09:39;;;;;;;2.30;0.65;;;11.20;99.90;;;;;;5060985;28;20052;-79
2023/03/19 11:12:16;;;;;;;1.35;0.70;;;11.10;99.90;;;;;;5067111;28;20047;-78
2023/03/19 11:14:45;;;;;;;1.67;0.65;;;11.00;99.90;;;;;;5062001;28;20055;-80
2023/03/19 11:17:40;;;;;;;1.27;0.63;;;10.90;99.90;;;;;;5044686;28;20084;-79
2023/03/19 11:20:35;;;;;;;1.52;0.77;;;10.70;99.90;;;;;;5047574;28;20108;-79
2023/03/19 11:23:06;;;;;;;1.40;0.60;;;10.60;99.90;;;;;;5060066;28;20455;-79
2023/03/19 11:25:54;;;;;;;0.93;0.57;;;10.70;99.90;;;;;;5054997;28;20051;-79
2023/03/19 11:28:23;;;;;;;1.38;0.65;;;10.70;99.90;;;;;;5079565;28;20545;-78
2023/03/19 11:31:04;;;;;;;1.73;0.98;;;10.70;99.90;;;;;;5076764;28;20048;-79
2023/03/19 11:33:53;;;;;;;2.05;0.75;;;10.60;99.90;;;;;;5024253;28;20196;-79
2023/03/19 11:36:41;;;;;;;1.95;0.90;;;10.60;99.90;;;;;;5067668;28;20040;-79
2023/03/19 11:39:20;;;;;;;1.27;0.60;;;10.80;99.90;;;;;;5035136;28;20480;-78
2023/03/19 11:41:51;;;;;;;1.63;0.63;;;10.90;99.90;;;;;;5046796;28;20062;-78
2023/03/19 11:44:31;;;;;;;0.70;0.47;;;11.00;99.90;;;;;;5062154;28;20060;-79
2023/03/19 11:47:07;;;;;;;1.55;0.77;;;11.20;99.90;;;;;;5060778;28;20086;-79
2023/03/19 11:49:49;;;;;;;1.98;0.68;;;11.20;99.90;;;;;;5078983;28;20048;-79
2023/03/19 11:52:37;;;;;;;1.55;0.80;;;11.30;99.90;;;;;;5060034;28;20066;-79
2023/03/19 11:55:16;;;;;;;0.70;0.60;;;11.30;99.90;;;;;;5040324;28;20048;-79
2023/03/19 11:58:22;;;;;;;0.85;0.60;;;11.40;99.90;;;;;;5040362;28;20080;-79
2023/03/19 12:00:53;;;;;;;2.00;0.80;;;11.50;99.90;;;;;;4994922;28;20073;-79
2023/03/19 12:03:55;;;;;;;1.23;0.57;;;11.60;99.90;;;;;;5026795;28;20055;-79
2023/03/19 12:06:47;;;;;;;1.65;0.50;;;11.70;99.90;;;;;;5037085;28;20133;-79
2023/03/19 12:10:14;;;;;;;2.30;0.70;;;11.70;99.90;;;;;;5052320;28;20056;-79
2023/03/19 12:13:05;;;;;;;1.50;0.60;;;11.70;99.90;;;;;;5052793;28;20052;-79
2023/03/19 12:15:49;;;;;;;1.58;0.80;;;11.80;99.90;;;;;;5067303;28;20527;-79
2023/03/19 12:18:58;;;;;;;1.50;0.85;;;11.80;99.90;;;;;;5052023;28;20060;-79
2023/03/19 12:21:50;;;;;;;1.98;0.70;;;11.90;99.90;;;;;;5055079;28;20147;-78
2023/03/19 12:24:38;;;;;;;2.00;0.68;;;12.00;99.90;;;;;;5075449;28;20530;-78
2023/03/19 12:27:26;;;;;;;1.67;0.60;;;12.00;99.90;;;;;;5057438;28;20072;-78
2023/03/19 12:30:08;;;;;;;1.40;0.57;;;12.10;99.90;;;;;;5075591;28;20056;-79
2023/03/19 12:33:09;;;;;;;1.27;0.70;;;12.00;99.90;;;;;;5075919;28;20044;-79
2023/03/19 12:35:37;;;;;;;1.42;0.65;;;11.90;99.90;;;;;;5053956;28;20052;-79
2023/03/19 12:38:26;;;;;;;1.25;0.90;;;11.90;99.90;;;;;;5041162;28;20391;-78
2023/03/19 12:40:57;;;;;;;1.75;0.80;;;11.90;99.90;;;;;;5038217;28;20051;-78
2023/03/19 12:43:31;;;;;;;1.75;0.80;;;11.90;99.90;;;;;;5038895;28;20044;-78
2023/03/19 12:46:16;;;;;;;1.55;0.77;;;11.60;99.90;;;;;;5053406;28;20079;-78
2023/03/19 12:48:55;;;;;;;1.08;0.70;;;11.60;99.90;;;;;;5043444;28;20048;-77
2023/03/19 12:51:28;;;;;;;1.88;1.02;;;11.60;99.90;;;;;;5051960;28;20072;-78
2023/03/19 12:53:59;;;;;;;1.35;0.90;;;11.70;99.90;;;;;;5052934;28;20159;-87
2023/03/19 12:56:37;;;;;;;2.22;1.35;;;12.10;99.90;;;;;;5056408;28;20055;-78
2023/03/19 12:59:27;;;;;;;2.58;0.90;;;12.40;99.90;;;;;;5058677;28;20052;-78
2023/03/19 13:02:08;;;;;;;3.08;1.00;;;12.40;99.90;;;;;;5032190;28;20045;-78
2023/03/19 13:04:39;;;;;;;2.67;0.90;;;12.40;99.90;;;;;;5058271;28;20060;-78
2023/03/19 13:07:35;;;;;;;1.50;0.90;;;12.40;99.90;;;;;;5026014;28;20052;-80
2023/03/19 13:10:11;;;;;;;1.30;0.70;;;12.40;99.90;;;;;;5057388;28;20585;-79
2023/03/19 13:12:38;;;;;;;1.00;0.60;;;12.30;99.90;;;;;;5074979;28;20669;-78